createdAt,value
2022-12-27T00:01:13.623Z,2.40
2022-12-27T00:03:46.496Z,2.30
2022-12-27T00:06:17.456Z,2.30
2022-12-27T00:08:48.840Z,2.30
2022-12-27T00:11:21.603Z,2.30
2022-12-27T00:13:50.432Z,2.30
2022-12-27T00:16:22.014Z,2.30
2022-12-27T00:18:52.521Z,2.20
2022-12-27T00:21:22.155Z,2.30
2022-12-27T00:23:52.211Z,2.30
2022-12-27T00:26:22.177Z,2.30
2022-12-27T00:28:50.900Z,2.20
2022-12-27T00:31:21.158Z,2.10
2022-12-27T00:33:52.977Z,2.20
2022-12-27T00:36:23.522Z,2.20
2022-12-27T00:38:52.682Z,2.10
2022-12-27T00:41:25.565Z,2.10
2022-12-27T00:43:57.234Z,2.10
2022-12-27T00:46:26.233Z,2.10
2022-12-27T00:48:57.684Z,2.10
2022-12-27T00:51:27.092Z,2.10
2022-12-27T00:53:55.916Z,2.00
2022-12-27T00:56:26.907Z,2.00
2022-12-27T00:58:55.616Z,2.00
2022-12-27T01:01:27.347Z,1.90
2022-12-27T01:03:57.899Z,1.90
2022-12-27T01:06:34.815Z,1.80
2022-12-27T01:09:04.815Z,1.90
2022-12-27T01:11:33.651Z,1.80
2022-12-27T01:14:04.039Z,1.90
2022-12-27T01:16:33.448Z,2.00
2022-12-27T01:19:03.422Z,2.00
2022-12-27T01:21:31.681Z,2.00
2022-12-27T01:24:00.278Z,2.00
2022-12-27T01:26:28.603Z,2.00
2022-12-27T01:28:56.903Z,2.00
2022-12-27T01:31:27.935Z,2.10
2022-12-27T01:33:58.233Z,2.10
2022-12-27T01:36:30.061Z,2.00
2022-12-27T01:38:59.247Z,2.00
2022-12-27T01:41:47.766Z,2.00
2022-12-27T01:44:49.667Z,2.00
2022-12-27T01:47:36.168Z,2.00
2022-12-27T01:50:15.979Z,1.90
2022-12-27T01:52:51.495Z,1.80
2022-12-27T01:55:24.490Z,1.80
2022-12-27T01:57:55.614Z,1.80
2022-12-27T02:00:24.133Z,1.80
2022-12-27T02:02:53.752Z,1.80
2022-12-27T02:05:25.219Z,1.70
2022-12-27T02:08:19.680Z,1.80
2022-12-27T02:10:48.070Z,1.70
2022-12-27T02:13:17.696Z,1.80
2022-12-27T02:15:45.878Z,1.80
2022-12-27T02:18:14.342Z,1.90
2022-12-27T02:20:58.834Z,1.80
2022-12-27T02:24:05.256Z,1.80
2022-12-27T02:26:47.152Z,1.80
2022-12-27T02:29:31.857Z,1.80
2022-12-27T02:32:05.384Z,1.80
2022-12-27T02:34:41.387Z,1.80
2022-12-27T02:37:13.476Z,1.90
2022-12-27T02:39:47.829Z,1.90
2022-12-27T02:42:35.459Z,1.90
2022-12-27T02:45:28.425Z,1.80
2022-12-27T02:48:14.158Z,1.80
2022-12-27T02:51:09.602Z,1.70
2022-12-27T02:53:50.606Z,1.70
2022-12-27T02:56:49.579Z,1.70
2022-12-27T02:59:28.535Z,1.70
2022-12-27T03:05:24.573Z,1.60
2022-12-27T03:08:01.837Z,1.60
2022-12-27T03:10:53.115Z,1.60
2022-12-27T03:13:48.877Z,1.60
2022-12-27T03:16:24.172Z,1.60
2022-12-27T03:19:03.301Z,1.60
2022-12-27T03:21:51.841Z,1.50
2022-12-27T03:24:37.943Z,1.40
2022-12-27T03:27:10.448Z,1.40
2022-12-27T03:29:57.170Z,1.50
2022-12-27T03:32:43.334Z,1.50
2022-12-27T03:35:17.838Z,1.50
2022-12-27T03:38:05.907Z,1.40
2022-12-27T03:41:03.550Z,1.50
2022-12-27T03:43:33.108Z,1.40
2022-12-27T03:46:29.196Z,1.40
2022-12-27T03:49:06.815Z,1.40
2022-12-27T03:51:41.557Z,1.40
2022-12-27T03:54:14.361Z,1.40
2022-12-27T03:56:42.911Z,1.40
2022-12-27T03:59:13.740Z,1.50
2022-12-27T04:01:42.642Z,1.50
2022-12-27T04:04:10.977Z,1.50
2022-12-27T04:06:40.583Z,1.40
2022-12-27T04:09:28.021Z,1.40
2022-12-27T04:12:13.787Z,1.40
2022-12-27T04:14:59.628Z,1.50
2022-12-27T04:17:45.453Z,1.50
2022-12-27T04:20:31.754Z,1.40
2022-12-27T04:23:18.946Z,1.50
2022-12-27T04:26:05.067Z,1.50
2022-12-27T04:28:50.714Z,1.40
2022-12-27T04:31:36.793Z,1.40
2022-12-27T04:34:27.266Z,1.50
2022-12-27T04:36:59.114Z,1.50
2022-12-27T04:39:29.607Z,1.40
2022-12-27T04:42:15.306Z,1.50
2022-12-27T04:45:00.991Z,1.50
2022-12-27T04:47:47.139Z,1.50
2022-12-27T04:50:40.841Z,1.40
2022-12-27T04:53:32.465Z,1.40
2022-12-27T04:56:02.241Z,1.40
2022-12-27T04:58:30.633Z,1.40
2022-12-27T05:01:34.472Z,1.40
2022-12-27T05:04:02.748Z,1.40
2022-12-27T05:06:30.926Z,1.40
2022-12-27T05:09:22.989Z,1.40
2022-12-27T05:12:15.682Z,1.50
2022-12-27T05:14:48.507Z,1.40
2022-12-27T05:17:16.838Z,1.50
2022-12-27T05:19:44.967Z,1.50
2022-12-27T05:22:30.845Z,1.40
2022-12-27T05:25:16.781Z,1.40
2022-12-27T05:27:46.487Z,1.40
2022-12-27T05:30:14.813Z,1.50
2022-12-27T05:32:42.995Z,1.50
2022-12-27T05:35:11.406Z,1.50
2022-12-27T05:37:41.223Z,1.50
2022-12-27T05:40:11.529Z,1.50
2022-12-27T05:42:39.739Z,1.50
2022-12-27T05:45:10.154Z,1.50
2022-12-27T05:47:38.444Z,1.50
2022-12-27T05:50:07.298Z,1.50
2022-12-27T05:52:40.722Z,1.40
2022-12-27T05:55:10.212Z,1.50
2022-12-27T05:57:39.680Z,1.50
2022-12-27T06:00:12.225Z,1.50
2022-12-27T06:02:42.180Z,1.50
2022-12-27T06:05:11.680Z,1.50
2022-12-27T06:07:40.397Z,1.50
2022-12-27T06:10:09.811Z,1.50
2022-12-27T06:12:38.293Z,1.50
2022-12-27T06:15:08.045Z,1.40
2022-12-27T06:17:47.529Z,1.50
2022-12-27T06:20:16.015Z,1.60
2022-12-27T06:22:44.456Z,1.60
2022-12-27T06:25:15.613Z,1.60
2022-12-27T06:27:44.091Z,1.60
2022-12-27T06:30:13.649Z,1.60
2022-12-27T06:32:43.380Z,1.60
2022-12-27T06:35:11.947Z,1.60
2022-12-27T06:37:40.373Z,1.60
2022-12-27T06:40:19.134Z,1.60
2022-12-27T06:42:53.957Z,1.60
2022-12-27T06:45:22.427Z,1.50
2022-12-27T06:47:52.110Z,1.50
2022-12-27T06:50:20.311Z,1.50
2022-12-27T06:52:48.587Z,1.60
2022-12-27T06:55:23.575Z,1.50
2022-12-27T06:57:52.596Z,1.60
2022-12-27T07:00:21.857Z,1.70
2022-12-27T07:02:52.352Z,1.70
2022-12-27T07:05:21.754Z,1.80
2022-12-27T07:07:54.392Z,1.80
2022-12-27T07:10:24.781Z,1.90
2022-12-27T07:12:56.121Z,1.90
2022-12-27T07:15:25.340Z,1.90
2022-12-27T07:18:00.322Z,2.00
2022-12-27T07:20:36.094Z,2.00
2022-12-27T07:23:26.298Z,2.10
2022-12-27T07:26:06.859Z,2.10
2022-12-27T07:28:35.491Z,2.00
2022-12-27T07:31:10.944Z,2.00
2022-12-27T07:33:43.487Z,1.90
2022-12-27T07:36:15.905Z,1.90
2022-12-27T07:38:46.528Z,2.00
2022-12-27T07:41:21.014Z,2.00
2022-12-27T07:43:52.257Z,2.00
2022-12-27T07:46:28.857Z,1.90
2022-12-27T07:49:02.679Z,1.90
2022-12-27T07:51:34.776Z,2.00
2022-12-27T07:54:06.469Z,2.10
2022-12-27T07:56:39.247Z,2.10
2022-12-27T07:59:14.803Z,2.00
2022-12-27T08:02:02.154Z,2.40
2022-12-27T08:04:37.894Z,2.70
2022-12-27T08:07:10.788Z,3.60
2022-12-27T08:09:43.905Z,4.40
2022-12-27T08:12:26.533Z,4.00
2022-12-27T08:14:56.102Z,4.30
2022-12-27T08:17:31.203Z,3.50
2022-12-27T08:20:06.341Z,3.60
2022-12-27T08:22:38.809Z,3.50
2022-12-27T08:25:09.973Z,2.70
2022-12-27T08:27:40.004Z,2.70
2022-12-27T08:30:10.826Z,2.50
2022-12-27T08:32:39.695Z,2.50
2022-12-27T08:35:50.179Z,2.70
2022-12-27T08:38:04.730Z,2.70
2022-12-27T08:40:34.228Z,2.70
2022-12-27T08:43:07.322Z,2.70
2022-12-27T08:45:38.897Z,2.70
2022-12-27T08:48:08.185Z,2.70
2022-12-27T08:50:50.598Z,2.80
2022-12-27T08:53:30.673Z,2.80
2022-12-27T08:56:30.646Z,2.90
2022-12-27T08:59:00.927Z,2.90
2022-12-27T09:01:39.641Z,3.00
2022-12-27T09:04:23.472Z,2.90
2022-12-27T09:07:03.563Z,3.00
2022-12-27T09:09:33.513Z,2.90
2022-12-27T09:12:04.010Z,3.00
2022-12-27T09:14:37.140Z,3.00
2022-12-27T09:17:10.682Z,3.00
2022-12-27T09:19:51.817Z,3.10
2022-12-27T09:22:35.235Z,3.10
2022-12-27T09:25:18.017Z,3.20
2022-12-27T09:27:50.086Z,3.20
2022-12-27T09:30:19.869Z,3.20
2022-12-27T09:32:49.660Z,3.30
2022-12-27T09:35:18.891Z,3.40
2022-12-27T09:37:51.825Z,3.50
2022-12-27T09:40:22.558Z,3.60
2022-12-27T09:43:19.073Z,3.70
2022-12-27T09:46:02.635Z,3.70
2022-12-27T09:48:43.828Z,3.80
2022-12-27T09:51:24.199Z,3.80
2022-12-27T09:54:07.418Z,3.90
2022-12-27T09:57:09.472Z,3.90
2022-12-27T09:59:31.355Z,3.90
2022-12-27T10:02:06.238Z,3.90
2022-12-27T10:05:19.040Z,3.80
2022-12-27T10:07:51.037Z,3.80
2022-12-27T10:10:36.192Z,4.00
2022-12-27T10:13:29.845Z,4.30
2022-12-27T10:16:22.294Z,4.20
2022-12-27T10:19:11.837Z,4.30
2022-12-27T10:21:54.137Z,4.30
2022-12-27T10:24:30.528Z,4.40
2022-12-27T10:27:01.402Z,4.30
2022-12-27T10:29:33.398Z,4.40
2022-12-27T10:32:01.939Z,4.30
2022-12-27T10:34:31.597Z,4.30
2022-12-27T10:37:02.193Z,4.40
2022-12-27T10:39:41.890Z,4.50
2022-12-27T10:42:29.898Z,4.40
2022-12-27T10:45:33.931Z,4.60
2022-12-27T10:48:17.970Z,4.70
2022-12-27T10:50:54.613Z,4.50
2022-12-27T10:53:41.293Z,4.60
2022-12-27T10:56:19.069Z,4.70
2022-12-27T10:59:33.106Z,4.80
2022-12-27T11:02:26.562Z,4.80
2022-12-27T11:05:03.886Z,4.80
2022-12-27T11:07:39.618Z,4.70
2022-12-27T11:10:19.376Z,4.90
2022-12-27T11:12:58.081Z,4.90
2022-12-27T11:15:32.405Z,4.90
2022-12-27T11:18:03.564Z,5.00
2022-12-27T11:20:34.724Z,5.00
2022-12-27T11:23:05.303Z,4.90
2022-12-27T11:25:39.573Z,4.90
2022-12-27T11:28:22.251Z,5.00
2022-12-27T11:30:58.572Z,5.10
2022-12-27T11:33:34.902Z,5.10
2022-12-27T11:36:06.309Z,5.00
2022-12-27T11:38:37.988Z,5.10
2022-12-27T11:41:23.220Z,5.20
2022-12-27T11:44:16.139Z,5.20
2022-12-27T11:46:55.496Z,5.40
2022-12-27T11:49:41.684Z,5.30
2022-12-27T11:52:47.575Z,5.30
2022-12-27T11:56:14.018Z,5.40
2022-12-27T11:59:08.143Z,5.50
2022-12-27T12:02:15.656Z,5.40
2022-12-27T12:05:17.524Z,5.20
2022-12-27T12:08:12.343Z,5.00
2022-12-27T12:10:51.684Z,5.20
2022-12-27T12:13:41.689Z,5.40
2022-12-27T12:17:05.681Z,5.70
2022-12-27T12:20:18.800Z,5.60
2022-12-27T12:23:07.097Z,5.30
2022-12-27T12:26:09.283Z,5.40
2022-12-27T12:29:15.059Z,5.20
2022-12-27T12:32:28.112Z,5.20
2022-12-27T12:35:31.254Z,5.30
2022-12-27T12:38:24.749Z,5.10
2022-12-27T12:41:30.939Z,5.20
2022-12-27T12:44:44.285Z,5.30
2022-12-27T12:47:28.509Z,5.30
2022-12-27T12:50:19.763Z,5.20
2022-12-27T12:53:25.236Z,5.40
2022-12-27T12:56:07.555Z,5.60
2022-12-27T12:58:59.270Z,5.70
2022-12-27T13:01:59.336Z,5.40
2022-12-27T13:04:52.498Z,5.40
2022-12-27T13:07:43.517Z,5.60
2022-12-27T13:10:42.738Z,5.30
2022-12-27T13:13:27.038Z,5.40
2022-12-27T13:16:15.623Z,5.20
2022-12-27T13:18:56.150Z,5.00
2022-12-27T13:21:47.371Z,5.20
2022-12-27T13:24:46.551Z,5.10
2022-12-27T13:27:30.017Z,5.00
2022-12-27T13:30:14.218Z,4.90
2022-12-27T13:33:07.218Z,4.90
2022-12-27T13:35:47.088Z,4.90
2022-12-27T13:38:31.656Z,5.00
2022-12-27T13:41:29.900Z,4.80
2022-12-27T13:44:29.590Z,4.90
2022-12-27T13:47:23.117Z,5.00
2022-12-27T13:50:15.274Z,5.00
2022-12-27T13:53:07.129Z,5.00
2022-12-27T13:55:55.333Z,5.00
2022-12-27T13:58:59.481Z,4.80
2022-12-27T14:02:03.981Z,4.70
2022-12-27T14:05:06.163Z,4.60
2022-12-27T14:07:55.684Z,4.60
2022-12-27T14:10:36.425Z,4.70
2022-12-27T14:13:10.073Z,4.70
2022-12-27T14:16:25.472Z,4.60
2022-12-27T14:19:19.012Z,4.50
2022-12-27T14:22:19.823Z,4.40
2022-12-27T14:25:36.461Z,4.30
2022-12-27T14:28:39.082Z,4.30
2022-12-27T14:31:46.910Z,4.30
2022-12-27T14:34:57.431Z,4.20
2022-12-27T14:38:02.095Z,4.20
2022-12-27T14:41:06.767Z,4.20
2022-12-27T14:44:28.929Z,4.10
2022-12-27T14:47:31.714Z,4.10
2022-12-27T14:50:38.781Z,4.10
2022-12-27T14:54:02.804Z,4.20
2022-12-27T14:56:40.777Z,4.20
2022-12-27T14:59:34.236Z,4.10
2022-12-27T15:02:26.659Z,4.20
2022-12-27T15:05:23.879Z,4.10
2022-12-27T15:11:56.375Z,4.10
2022-12-27T15:14:59.209Z,4.00
2022-12-27T15:17:39.389Z,4.00
2022-12-27T15:20:25.599Z,4.00
2022-12-27T15:23:25.392Z,4.10
2022-12-27T15:26:15.938Z,4.00
2022-12-27T15:29:35.335Z,4.10
2022-12-27T15:32:21.018Z,4.00
2022-12-27T15:35:13.696Z,4.00
2022-12-27T15:38:16.816Z,4.00
2022-12-27T15:41:31.170Z,4.00
2022-12-27T15:44:35.776Z,3.90
2022-12-27T15:47:21.329Z,3.80
2022-12-27T15:50:19.833Z,3.80
2022-12-27T15:53:15.171Z,3.80
2022-12-27T15:56:26.614Z,3.80
2022-12-27T15:59:35.709Z,3.80
2022-12-27T16:02:37.781Z,3.70
2022-12-27T16:06:05.017Z,3.80
2022-12-27T16:08:42.361Z,3.80
2022-12-27T16:11:15.525Z,3.80
2022-12-27T16:13:54.489Z,3.80
2022-12-27T16:17:02.452Z,3.80
2022-12-27T16:20:16.795Z,3.90
2022-12-27T16:22:53.281Z,3.90
2022-12-27T16:25:33.236Z,3.90
2022-12-27T16:28:14.063Z,4.00
2022-12-27T16:30:51.074Z,4.00
2022-12-27T16:33:39.309Z,4.00
2022-12-27T16:36:29.981Z,4.10
2022-12-27T16:39:37.318Z,4.10
2022-12-27T16:42:10.095Z,4.10
2022-12-27T16:44:56.569Z,4.10
2022-12-27T16:47:51.858Z,4.10
2022-12-27T16:50:53.865Z,4.20
2022-12-27T16:53:46.165Z,4.20
2022-12-27T16:56:27.574Z,4.20
2022-12-27T16:59:12.922Z,4.20
2022-12-27T17:02:16.893Z,4.20
2022-12-27T17:05:02.082Z,4.20
2022-12-27T17:08:20.459Z,4.20
2022-12-27T17:14:23.978Z,4.30
2022-12-27T17:16:57.141Z,4.20
2022-12-27T17:19:34.048Z,4.20
2022-12-27T17:22:19.010Z,4.20
2022-12-27T17:24:51.531Z,4.20
2022-12-27T17:27:45.779Z,4.20
2022-12-27T17:30:39.916Z,4.20
2022-12-27T17:37:18.957Z,4.20
2022-12-27T17:40:27.622Z,4.20
2022-12-27T17:47:17.281Z,4.20
2022-12-27T17:52:56.309Z,4.20
2022-12-27T17:56:10.531Z,4.30
2022-12-27T17:58:58.070Z,4.30
2022-12-27T18:01:45.548Z,4.20
2022-12-27T18:04:36.819Z,4.20
2022-12-27T18:07:22.441Z,4.40
2022-12-27T18:10:03.080Z,4.20
2022-12-27T18:13:10.039Z,4.30
2022-12-27T18:15:58.001Z,4.20
2022-12-27T18:18:45.993Z,4.20
2022-12-27T18:27:58.839Z,4.20
2022-12-27T18:30:32.976Z,4.20
2022-12-27T18:33:15.014Z,4.30
2022-12-27T18:35:52.886Z,4.20
2022-12-27T18:42:03.018Z,4.10
2022-12-27T18:45:03.314Z,4.20
2022-12-27T18:48:20.263Z,4.20
2022-12-27T18:53:58.248Z,4.10
2022-12-27T19:01:01.342Z,4.20
2022-12-27T19:03:47.727Z,4.20
2022-12-27T19:06:21.322Z,4.20
2022-12-27T19:08:55.788Z,4.20
2022-12-27T19:11:34.601Z,4.20
2022-12-27T19:17:22.724Z,4.20
2022-12-27T19:20:03.338Z,4.20
2022-12-27T19:22:57.620Z,4.30
2022-12-27T19:25:29.475Z,4.20
2022-12-27T19:28:29.879Z,4.20
2022-12-27T19:31:22.494Z,4.20
2022-12-27T19:33:56.333Z,4.20
2022-12-27T19:36:31.599Z,4.10
2022-12-27T19:39:03.272Z,4.20
2022-12-27T19:41:45.582Z,4.10
2022-12-27T19:44:23.130Z,4.10
2022-12-27T19:47:04.495Z,4.10
2022-12-27T19:49:44.422Z,4.10
2022-12-27T19:52:20.063Z,4.20
2022-12-27T19:54:57.685Z,4.20
2022-12-27T19:57:29.287Z,4.20
2022-12-27T20:00:08.424Z,4.20
2022-12-27T20:02:45.309Z,4.20
2022-12-27T20:05:16.105Z,4.20
2022-12-27T20:07:46.552Z,4.20
2022-12-27T20:10:26.239Z,4.20
2022-12-27T20:13:18.067Z,4.20
2022-12-27T20:15:50.930Z,4.20
2022-12-27T20:24:41.813Z,4.30
2022-12-27T20:31:26.854Z,4.30
2022-12-27T20:34:29.506Z,4.40
2022-12-27T20:37:00.872Z,4.40
2022-12-27T20:39:35.641Z,4.40
2022-12-27T20:42:07.566Z,4.30
2022-12-27T20:44:40.593Z,4.30
2022-12-27T20:47:10.950Z,4.30
2022-12-27T20:49:45.692Z,4.30
2022-12-27T20:52:17.960Z,4.30
2022-12-27T20:54:49.972Z,4.20
2022-12-27T20:57:22.001Z,4.20
2022-12-27T20:59:52.997Z,4.30
2022-12-27T21:02:23.078Z,4.20
2022-12-27T21:04:54.347Z,4.10
2022-12-27T21:07:27.010Z,4.20
2022-12-27T21:10:03.203Z,4.10
2022-12-27T21:15:01.489Z,4.10
2022-12-27T21:17:31.777Z,4.00
2022-12-27T21:20:01.933Z,3.90
2022-12-27T21:22:43.987Z,3.90
2022-12-27T21:25:19.697Z,3.90
2022-12-27T21:27:53.256Z,3.90
2022-12-27T21:30:22.532Z,3.80
2022-12-27T21:32:54.543Z,3.80
2022-12-27T21:35:24.358Z,3.80
2022-12-27T21:37:59.882Z,3.80
2022-12-27T21:44:07.976Z,3.70
2022-12-27T21:46:48.635Z,3.70
2022-12-27T21:52:12.610Z,3.60
2022-12-27T21:54:48.432Z,3.60
2022-12-27T21:57:17.309Z,3.50
2022-12-27T21:59:58.673Z,3.40
2022-12-27T22:02:27.996Z,3.40
2022-12-27T22:05:10.541Z,3.40
2022-12-27T22:07:41.882Z,3.40
2022-12-27T22:10:13.091Z,3.40
2022-12-27T22:12:43.713Z,3.40
2022-12-27T22:15:15.479Z,3.40
2022-12-27T22:17:45.055Z,3.40
2022-12-27T22:20:14.944Z,3.30
2022-12-27T22:22:44.424Z,3.30
2022-12-27T22:25:19.387Z,3.30
2022-12-27T22:27:49.044Z,3.20
2022-12-27T22:30:22.315Z,3.20
2022-12-27T22:32:50.895Z,3.20
2022-12-27T22:35:49.670Z,3.20
2022-12-27T22:38:33.005Z,3.20
2022-12-27T22:41:13.717Z,3.30
2022-12-27T22:43:47.172Z,3.30
2022-12-27T22:46:18.475Z,3.30
2022-12-27T22:49:03.090Z,3.30
2022-12-27T22:51:35.896Z,3.20
2022-12-27T22:54:08.484Z,3.10
2022-12-27T22:56:40.111Z,3.10
2022-12-27T22:59:26.194Z,3.20
2022-12-27T23:02:01.710Z,3.10
2022-12-27T23:04:45.102Z,3.10
2022-12-27T23:07:14.529Z,3.10
2022-12-27T23:09:43.849Z,3.20
2022-12-27T23:12:16.982Z,3.10
2022-12-27T23:14:45.641Z,3.10
2022-12-27T23:17:14.626Z,3.10
2022-12-27T23:19:44.895Z,3.20
2022-12-27T23:22:17.153Z,3.10
2022-12-27T23:24:49.551Z,3.10
2022-12-27T23:27:21.579Z,3.10
2022-12-27T23:29:51.833Z,3.00
2022-12-27T23:32:27.608Z,3.00
2022-12-27T23:34:58.131Z,3.00
2022-12-27T23:37:43.527Z,2.90
2022-12-27T23:40:58.400Z,2.90
2022-12-27T23:43:51.736Z,2.90
2022-12-27T23:46:24.322Z,2.90
2022-12-27T23:48:54.937Z,2.90
2022-12-27T23:51:24.710Z,2.90
2022-12-27T23:53:53.356Z,2.90
2022-12-27T23:56:27.114Z,2.90
2022-12-27T23:59:02.975Z,3.00
